Terminal Aerodrome Forecast
Issued by NWS

Home | Current Version | Previous Version | Text Only | Print | Product List | Glossary Off
Versions: 1 2 3 4 5 6 7 8 9 10 11 12 13 14 15 16 17 18 19 20 21 22 23 24 25 26 27 28 29 30 31 32 33 34 35 36

000
FTUS43 KLOT 282200 AAB
TAFORD
TAF AMD
KORD 282202Z 2822/2924 16013G19KT P6SM OVC200
     FM290000 16015G23KT P6SM BKN150
     FM290500 17015G23KT P6SM VCSH SCT030 BKN100
     FM290900 23013KT 6SM -SHRA OVC015
     FM291200 28010KT 4SM -RADZ BR OVC007
     FM291400 32014G23KT P6SM -RASN OVC015
     FM291800 33018G30KT P6SM OVC020=

USA.gov is the U.S. government's official web portal to all federal, state and local government web resources and services.